createdAt,value
2022-11-16T00:21:10.096Z,23.85
2022-11-16T00:24:04.766Z,24.10
2022-11-16T00:26:37.305Z,23.48
2022-11-16T00:34:50.042Z,24.45
2022-11-16T00:37:18.984Z,24.38
2022-11-16T00:39:48.924Z,26.35
2022-11-16T00:42:18.882Z,26.42
2022-11-16T00:44:47.657Z,26.27
2022-11-16T00:47:16.385Z,26.42
2022-11-16T00:49:45.252Z,25.05
2022-11-16T00:52:14.224Z,26.38
2022-11-16T00:54:45.237Z,25.08
2022-11-16T00:57:15.491Z,25.08
2022-11-16T00:59:44.518Z,25.05
2022-11-16T01:02:13.130Z,25.92
2022-11-16T01:04:41.731Z,26.00
2022-11-16T01:07:10.144Z,25.40
2022-11-16T01:09:39.526Z,25.25
2022-11-16T01:12:09.813Z,26.35
2022-11-16T01:14:43.776Z,25.42
2022-11-16T01:17:13.045Z,25.13
2022-11-16T01:19:42.546Z,25.30
2022-11-16T01:22:11.723Z,25.00
2022-11-16T01:24:40.203Z,26.88
2022-11-16T01:27:09.062Z,25.45
2022-11-16T01:29:39.622Z,24.95
2022-11-16T01:32:09.047Z,25.02
2022-11-16T01:34:38.113Z,24.23
2022-11-16T01:37:06.900Z,25.30
2022-11-16T01:39:36.545Z,25.17
2022-11-16T01:42:05.867Z,25.00
2022-11-16T01:45:25.217Z,25.60
2022-11-16T01:47:56.796Z,25.45
2022-11-16T01:50:26.359Z,25.17
2022-11-16T01:53:04.907Z,24.13
2022-11-16T01:55:36.939Z,26.10
2022-11-16T01:58:05.730Z,25.63
2022-11-16T02:00:36.055Z,25.95
2022-11-16T02:03:05.065Z,24.90
2022-11-16T02:05:49.587Z,24.38
2022-11-16T02:08:57.540Z,25.70
2022-11-16T02:11:56.344Z,23.83
2022-11-16T02:14:43.140Z,25.38
2022-11-16T02:17:33.400Z,25.58
2022-11-16T02:20:39.404Z,24.80
2022-11-16T02:23:46.888Z,24.95
2022-11-16T02:26:37.930Z,24.63
2022-11-16T02:29:22.766Z,24.95
2022-11-16T02:32:00.526Z,25.50
2022-11-16T02:34:34.298Z,24.77
2022-11-16T02:37:06.068Z,25.08
2022-11-16T02:39:39.031Z,25.50
2022-11-16T02:42:14.020Z,25.75
2022-11-16T02:44:48.920Z,24.60
2022-11-16T02:47:24.906Z,23.85
2022-11-16T02:50:00.497Z,24.70
2022-11-16T02:52:31.039Z,23.98
2022-11-16T02:55:01.779Z,24.70
2022-11-16T02:57:49.815Z,24.20
2022-11-16T03:00:25.498Z,24.52
2022-11-16T03:03:23.944Z,24.35
2022-11-16T03:05:57.429Z,23.83
2022-11-16T03:08:33.204Z,23.80
2022-11-16T03:11:24.197Z,24.63
2022-11-16T03:13:58.686Z,23.40
2022-11-16T03:16:36.880Z,24.30
2022-11-16T03:19:11.060Z,23.30
2022-11-16T03:21:46.549Z,22.95
2022-11-16T03:24:17.442Z,22.75
2022-11-16T03:26:52.483Z,23.33
2022-11-16T03:29:30.310Z,22.95
2022-11-16T03:32:07.251Z,23.55
2022-11-16T03:34:38.978Z,22.90
2022-11-16T03:37:12.301Z,25.17
2022-11-16T03:39:42.642Z,24.73
2022-11-16T03:42:15.311Z,24.90
2022-11-16T03:44:46.888Z,25.45
2022-11-16T03:47:17.216Z,24.80
2022-11-16T03:49:48.110Z,25.88
2022-11-16T03:52:19.667Z,25.98
2022-11-16T03:54:52.961Z,25.85
2022-11-16T03:57:23.974Z,25.63
2022-11-16T03:59:53.822Z,25.33
2022-11-16T04:02:24.355Z,26.00
2022-11-16T04:05:10.302Z,26.15
2022-11-16T04:10:42.203Z,24.97
2022-11-16T04:13:29.827Z,25.55
2022-11-16T04:16:15.819Z,24.70
2022-11-16T04:19:11.746Z,26.23
2022-11-16T04:22:02.343Z,26.33
2022-11-16T04:24:38.346Z,25.45
2022-11-16T04:27:31.139Z,25.25
2022-11-16T04:30:03.194Z,25.05
2022-11-16T04:32:49.514Z,24.13
2022-11-16T04:35:49.037Z,24.40
2022-11-16T04:38:17.902Z,23.30
2022-11-16T04:40:48.890Z,23.88
2022-11-16T04:43:16.191Z,23.42
2022-11-16T04:46:02.509Z,24.63
2022-11-16T04:48:31.154Z,21.48
2022-11-16T04:51:02.510Z,22.45
2022-11-16T04:53:31.875Z,22.98
2022-11-16T04:56:01.037Z,21.48
2022-11-16T04:58:30.445Z,21.25
2022-11-16T05:01:02.443Z,22.48
2022-11-16T05:03:36.619Z,21.30
2022-11-16T05:06:08.254Z,21.85
2022-11-16T05:08:36.966Z,22.55
2022-11-16T05:11:05.813Z,22.98
2022-11-16T05:13:38.943Z,22.48
2022-11-16T05:16:08.846Z,22.38
2022-11-16T05:18:43.979Z,21.25
2022-11-16T05:21:14.038Z,20.00
2022-11-16T05:24:01.464Z,21.83
2022-11-16T05:26:31.033Z,19.92
2022-11-16T05:29:00.026Z,20.77
2022-11-16T05:31:28.536Z,20.40
2022-11-16T05:33:57.575Z,19.35
2022-11-16T05:36:28.822Z,19.42
2022-11-16T05:38:57.348Z,20.30
2022-11-16T05:41:31.265Z,21.15
2022-11-16T05:44:02.637Z,19.08
2022-11-16T05:46:33.307Z,20.38
2022-11-16T05:49:03.238Z,20.05
2022-11-16T05:51:41.056Z,21.55
2022-11-16T05:54:10.771Z,20.48
2022-11-16T05:56:42.954Z,21.65
2022-11-16T05:59:16.421Z,21.55
2022-11-16T06:01:47.625Z,22.02
2022-11-16T06:07:02.803Z,22.67
2022-11-16T06:09:33.136Z,22.85
2022-11-16T06:12:03.640Z,21.58
2022-11-16T06:14:37.079Z,22.45
2022-11-16T06:17:06.511Z,23.00
2022-11-16T06:19:38.084Z,22.48
2022-11-16T06:22:09.188Z,22.80
2022-11-16T06:24:57.178Z,22.85
2022-11-16T06:27:28.590Z,22.13
2022-11-16T06:29:57.553Z,23.88
2022-11-16T06:32:40.802Z,23.67
2022-11-16T06:35:11.783Z,23.65
2022-11-16T06:37:59.713Z,23.98
2022-11-16T06:40:30.508Z,24.13
2022-11-16T06:42:58.926Z,23.23
2022-11-16T06:45:28.372Z,22.70
2022-11-16T06:48:03.194Z,22.98
2022-11-16T06:50:32.469Z,21.67
2022-11-16T06:53:07.692Z,21.27
2022-11-16T06:55:37.858Z,21.25
2022-11-16T06:58:08.035Z,21.10
2022-11-16T07:00:38.522Z,20.67
2022-11-16T07:03:08.230Z,21.02
2022-11-16T07:05:43.942Z,22.00
2022-11-16T07:08:21.417Z,21.13
2022-11-16T07:10:53.437Z,18.25
2022-11-16T07:13:22.310Z,18.42
2022-11-16T07:15:51.626Z,17.85
2022-11-16T07:18:20.931Z,16.77
2022-11-16T07:20:49.987Z,17.67
2022-11-16T07:23:21.370Z,16.33
2022-11-16T07:25:51.075Z,14.68
2022-11-16T07:28:21.117Z,15.55
2022-11-16T07:30:50.599Z,14.70
2022-11-16T07:33:19.455Z,14.90
2022-11-16T07:35:49.868Z,15.07
2022-11-16T07:38:21.302Z,15.27
2022-11-16T07:49:37.715Z,14.07
2022-11-16T07:52:09.291Z,14.23
2022-11-16T07:54:37.908Z,13.80
2022-11-16T07:57:06.859Z,13.20
2022-11-16T07:59:35.949Z,13.07
2022-11-16T08:02:07.099Z,13.65
2022-11-16T08:04:57.298Z,12.40
2022-11-16T08:07:26.042Z,12.43
2022-11-16T08:12:39.746Z,10.88
2022-11-16T08:15:14.357Z,10.35
2022-11-16T08:17:43.998Z,10.35
2022-11-16T08:20:16.940Z,10.18
2022-11-16T08:22:46.488Z,10.10
2022-11-16T08:25:15.423Z,10.10
2022-11-16T08:27:45.783Z,9.30
2022-11-16T08:30:16.628Z,8.38
2022-11-16T08:32:46.627Z,8.57
2022-11-16T08:35:17.759Z,9.05
2022-11-16T08:37:47.161Z,8.48
2022-11-16T08:40:16.054Z,8.60
2022-11-16T08:42:45.331Z,8.18
2022-11-16T08:45:14.135Z,8.73
2022-11-16T08:47:45.280Z,7.55
2022-11-16T08:50:16.364Z,8.02
2022-11-16T08:52:45.316Z,8.07
2022-11-16T08:55:17.322Z,7.65
2022-11-16T08:57:47.101Z,7.38
2022-11-16T09:00:17.491Z,7.15
2022-11-16T09:02:45.936Z,7.70
2022-11-16T09:05:16.874Z,7.05
2022-11-16T09:07:47.278Z,6.72
2022-11-16T09:13:03.143Z,6.70
2022-11-16T09:15:37.036Z,6.53
2022-11-16T09:18:12.045Z,6.57
2022-11-16T09:20:46.459Z,5.40
2022-11-16T09:23:22.261Z,5.13
2022-11-16T09:25:55.676Z,5.82
2022-11-16T09:28:29.031Z,5.57
2022-11-16T09:31:04.399Z,5.63
2022-11-16T09:36:07.687Z,4.20
2022-11-16T09:38:55.717Z,4.30
2022-11-16T09:41:49.313Z,4.28
2022-11-16T09:44:42.725Z,4.07
2022-11-16T09:47:22.041Z,4.07
2022-11-16T09:50:02.750Z,3.90
2022-11-16T09:52:41.026Z,5.97
2022-11-16T09:55:27.390Z,4.63
2022-11-16T09:57:59.844Z,5.05
2022-11-16T10:00:31.054Z,5.10
2022-11-16T10:03:07.868Z,5.75
2022-11-16T10:05:45.422Z,6.40
2022-11-16T10:08:24.685Z,6.93
2022-11-16T10:11:06.783Z,5.50
2022-11-16T10:13:50.965Z,5.85
2022-11-16T10:16:28.014Z,6.15
2022-11-16T10:19:04.271Z,5.45
2022-11-16T10:21:47.825Z,5.70
2022-11-16T10:24:53.836Z,5.50
2022-11-16T10:27:53.122Z,5.75
2022-11-16T10:30:23.805Z,5.28
2022-11-16T10:33:00.676Z,4.45
2022-11-16T10:35:35.628Z,4.95
2022-11-16T10:38:12.721Z,4.57
2022-11-16T10:40:43.184Z,3.50
2022-11-16T10:43:18.050Z,3.47
2022-11-16T10:45:53.288Z,3.92
2022-11-16T10:48:41.167Z,3.38
2022-11-16T10:51:12.167Z,2.83
2022-11-16T10:53:44.703Z,2.83
2022-11-16T10:56:23.712Z,3.13
2022-11-16T10:59:01.571Z,3.15
2022-11-16T11:01:51.717Z,2.65
2022-11-16T11:04:25.422Z,2.88
2022-11-16T11:06:58.762Z,2.83
2022-11-16T11:09:34.149Z,2.85
2022-11-16T11:15:26.308Z,3.35
2022-11-16T11:18:26.668Z,3.88
2022-11-16T11:21:08.701Z,3.28
2022-11-16T11:23:45.754Z,3.17
2022-11-16T11:26:36.935Z,2.85
2022-11-16T11:29:26.757Z,3.17
2022-11-16T11:31:59.516Z,2.90
2022-11-16T11:34:32.332Z,2.38
2022-11-16T11:37:05.593Z,2.88
2022-11-16T11:39:39.278Z,2.75
2022-11-16T11:42:28.519Z,2.53
2022-11-16T11:45:09.303Z,2.08
2022-11-16T11:47:58.932Z,2.78
2022-11-16T11:50:56.072Z,2.33
2022-11-16T11:53:54.809Z,2.33
2022-11-16T11:56:25.484Z,2.45
2022-11-16T11:58:59.085Z,2.63
2022-11-16T12:01:59.958Z,2.72
2022-11-16T12:05:51.000Z,2.55
2022-11-16T12:12:01.672Z,2.50
2022-11-16T12:18:26.160Z,2.53
2022-11-16T12:21:03.136Z,2.30
2022-11-16T12:24:01.706Z,2.47
2022-11-16T12:26:46.572Z,2.58
2022-11-16T12:29:30.745Z,2.05
2022-11-16T12:32:31.245Z,2.30
2022-11-16T12:35:30.986Z,1.85
2022-11-16T12:38:20.534Z,2.03
2022-11-16T12:41:23.841Z,2.40
2022-11-16T12:44:06.634Z,2.92
2022-11-16T12:46:48.035Z,2.33
2022-11-16T12:49:43.654Z,2.20
2022-11-16T12:52:28.982Z,2.40
2022-11-16T12:55:26.014Z,2.40
2022-11-16T12:58:15.119Z,2.30
2022-11-16T13:01:02.769Z,2.33
2022-11-16T13:03:41.086Z,2.20
2022-11-16T13:06:14.493Z,1.95
2022-11-16T13:08:55.359Z,2.92
2022-11-16T13:11:31.926Z,1.77
2022-11-16T13:14:07.262Z,2.30
2022-11-16T13:19:09.007Z,1.73
2022-11-16T13:21:48.974Z,3.38
2022-11-16T13:24:48.497Z,2.85
2022-11-16T13:27:33.833Z,2.30
2022-11-16T13:30:18.118Z,2.25
2022-11-16T13:33:05.550Z,1.98
2022-11-16T13:35:40.079Z,2.00
2022-11-16T13:38:12.471Z,1.92
2022-11-16T13:40:43.831Z,2.30
2022-11-16T13:43:23.085Z,2.10
2022-11-16T13:46:00.187Z,2.40
2022-11-16T13:48:35.959Z,2.15
2022-11-16T13:51:10.143Z,2.10
2022-11-16T13:56:53.523Z,1.80
2022-11-16T13:59:32.921Z,1.60
2022-11-16T14:02:05.292Z,1.50
2022-11-16T14:05:00.441Z,1.67
2022-11-16T14:07:44.990Z,1.50
2022-11-16T14:10:41.697Z,2.25
2022-11-16T14:13:44.280Z,1.77
2022-11-16T14:16:50.790Z,1.58
2022-11-16T14:19:58.022Z,3.50
2022-11-16T14:25:51.527Z,1.90
2022-11-16T14:28:45.327Z,1.67
2022-11-16T14:31:26.135Z,1.67
2022-11-16T14:34:04.547Z,1.83
2022-11-16T14:36:41.678Z,1.63
2022-11-16T14:39:33.189Z,1.50
2022-11-16T14:42:18.142Z,1.63
2022-11-16T14:44:49.431Z,1.63
2022-11-16T14:47:26.087Z,2.05
2022-11-16T14:49:57.927Z,2.33
2022-11-16T14:52:36.755Z,1.80
2022-11-16T14:55:11.012Z,2.15
2022-11-16T14:57:41.916Z,2.03
2022-11-16T15:01:09.016Z,2.35
2022-11-16T15:03:50.015Z,2.25
2022-11-16T15:06:20.699Z,1.90
2022-11-16T15:08:54.828Z,2.40
2022-11-16T15:11:51.211Z,1.80
2022-11-16T15:14:26.407Z,2.10
2022-11-16T15:17:00.496Z,2.00
2022-11-16T15:19:33.680Z,2.05
2022-11-16T15:22:23.787Z,2.10
2022-11-16T15:24:59.848Z,2.50
2022-11-16T15:27:40.522Z,2.47
2022-11-16T15:30:20.394Z,2.30
2022-11-16T15:32:59.744Z,2.03
2022-11-16T15:35:35.602Z,2.40
2022-11-16T15:38:08.974Z,1.90
2022-11-16T15:40:41.633Z,2.10
2022-11-16T15:43:15.014Z,2.22
2022-11-16T15:45:58.704Z,2.10
2022-11-16T15:48:30.385Z,1.98
2022-11-16T15:51:17.514Z,3.10
2022-11-16T15:53:58.336Z,2.40
2022-11-16T15:56:36.400Z,1.88
2022-11-16T15:59:32.779Z,2.05
2022-11-16T16:02:08.521Z,2.33
2022-11-16T16:04:43.676Z,2.30
2022-11-16T16:07:42.054Z,2.97
2022-11-16T16:10:28.135Z,2.78
2022-11-16T16:13:01.937Z,2.72
2022-11-16T16:15:36.669Z,2.70
2022-11-16T16:18:40.728Z,4.07
2022-11-16T16:21:12.845Z,4.03
2022-11-16T16:23:54.664Z,3.53
2022-11-16T16:26:25.512Z,3.20
2022-11-16T16:28:59.593Z,3.05
2022-11-16T16:31:30.623Z,3.17
2022-11-16T16:34:12.660Z,3.55
2022-11-16T16:36:46.474Z,2.80
2022-11-16T16:39:21.222Z,2.80
2022-11-16T16:41:51.788Z,2.47
2022-11-16T16:44:29.364Z,2.97
2022-11-16T16:47:05.432Z,3.35
2022-11-16T16:49:37.099Z,2.58
2022-11-16T16:52:07.856Z,3.65
2022-11-16T16:54:46.225Z,2.92
2022-11-16T16:57:19.544Z,2.42
2022-11-16T16:59:50.906Z,3.05
2022-11-16T17:02:25.509Z,3.28
2022-11-16T17:07:28.534Z,3.40
2022-11-16T17:10:01.716Z,2.90
2022-11-16T17:12:32.453Z,2.78
2022-11-16T17:15:05.282Z,2.20
2022-11-16T17:17:36.180Z,2.95
2022-11-16T17:20:06.281Z,2.60
2022-11-16T17:22:36.953Z,3.65
2022-11-16T17:25:09.735Z,2.63
2022-11-16T17:27:39.791Z,2.60
2022-11-16T17:30:11.446Z,2.55
2022-11-16T17:32:40.454Z,3.08
2022-11-16T17:35:12.026Z,3.35
2022-11-16T17:40:49.941Z,2.88
2022-11-16T17:43:20.078Z,2.55
2022-11-16T17:45:49.849Z,3.15
2022-11-16T17:48:20.503Z,2.65
2022-11-16T17:50:50.036Z,3.00
2022-11-16T17:53:20.434Z,2.92
2022-11-16T17:55:52.889Z,2.72
2022-11-16T17:58:24.659Z,2.90
2022-11-16T18:00:55.070Z,2.75
2022-11-16T18:03:25.687Z,2.53
2022-11-16T18:06:19.790Z,2.50
2022-11-16T18:08:49.634Z,2.40
2022-11-16T18:11:22.258Z,2.60
2022-11-16T18:13:59.485Z,2.63
2022-11-16T18:16:33.093Z,2.28
2022-11-16T18:19:05.278Z,2.35
2022-11-16T18:21:41.255Z,2.17
2022-11-16T18:24:11.076Z,2.47
2022-11-16T18:26:42.937Z,2.10
2022-11-16T18:29:18.748Z,2.47
2022-11-16T18:31:50.302Z,2.00
2022-11-16T18:34:20.488Z,2.30
2022-11-16T18:36:55.202Z,3.47
2022-11-16T18:39:25.456Z,2.90
2022-11-16T18:41:56.226Z,2.28
2022-11-16T18:44:26.818Z,2.28
2022-11-16T18:46:56.065Z,2.50
2022-11-16T18:49:24.642Z,2.58
2022-11-16T18:51:54.291Z,2.28
2022-11-16T18:54:27.047Z,2.25
2022-11-16T18:56:58.930Z,2.42
2022-11-16T18:59:29.797Z,2.67
2022-11-16T19:01:59.778Z,2.35
2022-11-16T19:04:30.071Z,2.70
2022-11-16T19:07:02.794Z,3.17
2022-11-16T19:09:32.249Z,2.00
2022-11-16T19:12:05.845Z,2.55
2022-11-16T19:14:36.275Z,2.35
2022-11-16T19:17:06.246Z,2.40
2022-11-16T19:19:35.001Z,2.45
2022-11-16T19:22:06.597Z,2.28
2022-11-16T19:24:35.474Z,3.13
2022-11-16T19:27:05.972Z,2.60
2022-11-16T19:29:36.176Z,2.55
2022-11-16T19:32:06.686Z,2.70
2022-11-16T19:34:36.043Z,2.63
2022-11-16T19:37:11.858Z,2.90
2022-11-16T19:39:45.781Z,2.28
2022-11-16T19:42:16.386Z,2.92
2022-11-16T19:44:47.782Z,2.95
2022-11-16T19:47:24.680Z,2.65
2022-11-16T19:49:59.247Z,2.80
2022-11-16T19:52:29.111Z,3.00
2022-11-16T19:55:06.059Z,3.00
2022-11-16T19:57:37.407Z,2.78
2022-11-16T20:00:11.096Z,3.78
2022-11-16T20:02:42.556Z,3.33
2022-11-16T20:05:12.377Z,3.10
2022-11-16T20:07:54.548Z,3.00
2022-11-16T20:10:26.928Z,4.82
2022-11-16T20:12:58.452Z,3.45
2022-11-16T20:15:27.490Z,3.28
2022-11-16T20:18:00.896Z,3.67
2022-11-16T20:20:31.728Z,3.22
2022-11-16T20:23:11.903Z,3.88
2022-11-16T20:25:46.980Z,2.97
2022-11-16T20:28:19.752Z,3.40
2022-11-16T20:30:50.824Z,3.70
2022-11-16T20:33:19.778Z,2.80
2022-11-16T20:35:49.111Z,3.08
2022-11-16T20:38:34.443Z,2.78
2022-11-16T20:41:10.718Z,3.40
2022-11-16T20:43:42.077Z,3.17
2022-11-16T20:46:13.830Z,5.05
2022-11-16T20:48:45.476Z,3.80
2022-11-16T20:51:18.224Z,3.88
2022-11-16T20:53:50.953Z,3.80
2022-11-16T20:56:21.842Z,3.20
2022-11-16T20:59:00.899Z,3.28
2022-11-16T21:01:32.233Z,3.35
2022-11-16T21:04:03.820Z,3.28
2022-11-16T21:06:34.542Z,3.15
2022-11-16T21:09:07.447Z,3.22
2022-11-16T21:11:57.439Z,3.42
2022-11-16T21:14:27.967Z,3.35
2022-11-16T21:16:58.452Z,3.33
2022-11-16T21:19:26.972Z,3.47
2022-11-16T21:21:55.679Z,3.40
2022-11-16T21:24:24.989Z,3.17
2022-11-16T21:26:54.437Z,3.08
2022-11-16T21:29:32.145Z,3.38
2022-11-16T21:32:01.670Z,3.15
2022-11-16T21:34:35.890Z,2.90
2022-11-16T21:37:07.943Z,2.63
2022-11-16T21:39:42.551Z,3.13
2022-11-16T21:42:21.263Z,2.80
2022-11-16T21:44:50.963Z,3.13
2022-11-16T21:47:34.457Z,3.53
2022-11-16T21:52:59.809Z,2.95
2022-11-16T21:55:29.185Z,3.03
2022-11-16T21:57:58.681Z,3.33
2022-11-16T22:00:31.850Z,2.92
2022-11-16T22:03:00.511Z,3.47
2022-11-16T22:05:46.438Z,2.92
2022-11-16T22:08:18.088Z,2.72
2022-11-16T22:10:54.716Z,2.95
2022-11-16T22:13:24.267Z,2.90
2022-11-16T22:15:57.661Z,3.10
2022-11-16T22:18:26.842Z,2.97
2022-11-16T22:20:58.223Z,2.55
2022-11-16T22:23:27.306Z,3.38
2022-11-16T22:26:02.709Z,3.00
2022-11-16T22:28:32.156Z,3.00
2022-11-16T22:31:03.405Z,3.20
2022-11-16T22:33:33.071Z,3.20
2022-11-16T22:36:04.105Z,2.97
2022-11-16T22:38:32.918Z,2.90
2022-11-16T22:41:02.988Z,2.78
2022-11-16T22:43:34.720Z,2.72
2022-11-16T22:46:09.428Z,2.40
2022-11-16T22:48:41.366Z,2.83
2022-11-16T22:51:18.958Z,2.80
2022-11-16T22:53:48.460Z,2.60
2022-11-16T22:56:17.280Z,3.35
2022-11-16T22:58:45.925Z,2.28
2022-11-16T23:01:18.410Z,2.65
2022-11-16T23:03:48.466Z,2.92
2022-11-16T23:06:22.839Z,2.30
2022-11-16T23:08:52.110Z,2.75
2022-11-16T23:11:41.067Z,2.45
2022-11-16T23:14:30.432Z,2.80
2022-11-16T23:17:01.577Z,2.50
2022-11-16T23:19:50.144Z,2.65
2022-11-16T23:22:39.000Z,2.47
2022-11-16T23:25:29.440Z,2.75
2022-11-16T23:28:05.455Z,2.58
2022-11-16T23:30:35.165Z,2.97
2022-11-16T23:33:05.907Z,2.83
2022-11-16T23:35:35.287Z,2.70
2022-11-16T23:38:07.054Z,3.08
2022-11-16T23:40:38.010Z,3.40
2022-11-16T23:43:37.056Z,2.97
2022-11-16T23:46:06.604Z,3.65
2022-11-16T23:48:37.634Z,3.90
2022-11-16T23:51:11.050Z,3.83
2022-11-16T23:53:40.766Z,3.92
2022-11-16T23:56:09.440Z,3.80
2022-11-16T23:58:43.124Z,3.40
